sensor_id;sensor_type;location;lat;lon;timestamp;P1;durP1;ratioP1;P2;durP2;ratioP2
16189;SDS011;41754;51.498;7.540;2023-07-31T00:01:17;5.22;;;3.38;;
16189;SDS011;41754;51.498;7.540;2023-07-31T00:03:46;5.72;;;3.08;;
16189;SDS011;41754;51.498;7.540;2023-07-31T00:06:14;5.15;;;3.53;;
16189;SDS011;41754;51.498;7.540;2023-07-31T00:08:42;5.15;;;3.28;;
16189;SDS011;41754;51.498;7.540;2023-07-31T00:11:10;5.45;;;3.30;;
16189;SDS011;41754;51.498;7.540;2023-07-31T00:13:38;6.43;;;3.55;;
16189;SDS011;41754;51.498;7.540;2023-07-31T00:16:05;5.93;;;3.20;;
16189;SDS011;41754;51.498;7.540;2023-07-31T00:18:33;5.10;;;3.20;;
16189;SDS011;41754;51.498;7.540;2023-07-31T00:21:02;5.03;;;3.25;;
16189;SDS011;41754;51.498;7.540;2023-07-31T00:23:30;6.85;;;3.60;;
16189;SDS011;41754;51.498;7.540;2023-07-31T00:25:58;7.03;;;3.58;;
16189;SDS011;41754;51.498;7.540;2023-07-31T00:28:26;7.68;;;3.50;;
16189;SDS011;41754;51.498;7.540;2023-07-31T00:30:55;7.13;;;3.40;;
16189;SDS011;41754;51.498;7.540;2023-07-31T00:33:26;7.65;;;3.42;;
16189;SDS011;41754;51.498;7.540;2023-07-31T00:35:54;6.35;;;3.67;;
16189;SDS011;41754;51.498;7.540;2023-07-31T00:38:26;8.63;;;3.75;;
16189;SDS011;41754;51.498;7.540;2023-07-31T00:40:54;6.03;;;3.83;;
16189;SDS011;41754;51.498;7.540;2023-07-31T00:43:21;4.75;;;3.38;;
16189;SDS011;41754;51.498;7.540;2023-07-31T00:45:49;8.10;;;3.47;;
16189;SDS011;41754;51.498;7.540;2023-07-31T00:48:18;7.25;;;3.53;;
16189;SDS011;41754;51.498;7.540;2023-07-31T00:50:45;8.75;;;3.55;;
16189;SDS011;41754;51.498;7.540;2023-07-31T00:53:14;6.22;;;3.45;;
16189;SDS011;41754;51.498;7.540;2023-07-31T00:55:43;6.78;;;3.70;;
16189;SDS011;41754;51.498;7.540;2023-07-31T00:58:12;5.72;;;3.63;;
16189;SDS011;41754;51.498;7.540;2023-07-31T01:00:40;8.45;;;4.40;;
16189;SDS011;41754;51.498;7.540;2023-07-31T01:03:08;7.20;;;3.92;;
16189;SDS011;41754;51.498;7.540;2023-07-31T01:05:39;7.03;;;4.40;;
16189;SDS011;41754;51.498;7.540;2023-07-31T01:08:15;10.23;;;4.03;;
16189;SDS011;41754;51.498;7.540;2023-07-31T01:10:50;8.85;;;4.60;;
16189;SDS011;41754;51.498;7.540;2023-07-31T01:13:22;7.13;;;3.63;;
16189;SDS011;41754;51.498;7.540;2023-07-31T01:15:51;9.70;;;4.60;;
16189;SDS011;41754;51.498;7.540;2023-07-31T01:18:20;9.35;;;4.47;;
16189;SDS011;41754;51.498;7.540;2023-07-31T01:20:50;10.30;;;5.05;;
16189;SDS011;41754;51.498;7.540;2023-07-31T01:26:27;12.07;;;4.78;;
16189;SDS011;41754;51.498;7.540;2023-07-31T01:29:01;11.23;;;4.95;;
16189;SDS011;41754;51.498;7.540;2023-07-31T01:31:34;16.35;;;5.47;;
16189;SDS011;41754;51.498;7.540;2023-07-31T01:34:04;11.38;;;5.15;;
16189;SDS011;41754;51.498;7.540;2023-07-31T01:36:33;11.60;;;4.80;;
16189;SDS011;41754;51.498;7.540;2023-07-31T01:39:01;13.70;;;5.85;;
16189;SDS011;41754;51.498;7.540;2023-07-31T01:41:31;8.93;;;4.47;;
16189;SDS011;41754;51.498;7.540;2023-07-31T01:43:59;8.57;;;4.50;;
16189;SDS011;41754;51.498;7.540;2023-07-31T01:46:27;10.13;;;4.60;;
16189;SDS011;41754;51.498;7.540;2023-07-31T01:48:55;9.18;;;4.40;;
16189;SDS011;41754;51.498;7.540;2023-07-31T01:51:23;9.60;;;4.63;;
16189;SDS011;41754;51.498;7.540;2023-07-31T01:53:51;12.70;;;5.15;;
16189;SDS011;41754;51.498;7.540;2023-07-31T01:56:19;11.18;;;4.07;;
16189;SDS011;41754;51.498;7.540;2023-07-31T01:58:48;8.98;;;4.68;;
16189;SDS011;41754;51.498;7.540;2023-07-31T02:01:16;10.35;;;4.30;;
16189;SDS011;41754;51.498;7.540;2023-07-31T02:03:44;9.52;;;4.03;;
16189;SDS011;41754;51.498;7.540;2023-07-31T02:06:13;7.30;;;3.80;;
16189;SDS011;41754;51.498;7.540;2023-07-31T02:08:42;11.73;;;4.10;;
16189;SDS011;41754;51.498;7.540;2023-07-31T02:11:12;8.43;;;4.22;;
16189;SDS011;41754;51.498;7.540;2023-07-31T02:13:39;8.82;;;4.30;;
16189;SDS011;41754;51.498;7.540;2023-07-31T02:16:09;7.95;;;4.15;;
16189;SDS011;41754;51.498;7.540;2023-07-31T02:18:37;5.85;;;3.92;;
16189;SDS011;41754;51.498;7.540;2023-07-31T02:21:05;9.75;;;4.30;;
16189;SDS011;41754;51.498;7.540;2023-07-31T02:23:32;8.93;;;3.75;;
16189;SDS011;41754;51.498;7.540;2023-07-31T02:26:00;7.97;;;4.30;;
16189;SDS011;41754;51.498;7.540;2023-07-31T02:28:28;10.77;;;4.25;;
16189;SDS011;41754;51.498;7.540;2023-07-31T02:30:56;9.43;;;3.80;;
16189;SDS011;41754;51.498;7.540;2023-07-31T02:33:26;7.43;;;4.05;;
16189;SDS011;41754;51.498;7.540;2023-07-31T02:35:54;10.13;;;3.60;;
16189;SDS011;41754;51.498;7.540;2023-07-31T02:38:22;10.75;;;4.10;;
16189;SDS011;41754;51.498;7.540;2023-07-31T02:40:50;8.52;;;3.70;;
16189;SDS011;41754;51.498;7.540;2023-07-31T02:43:18;8.93;;;4.68;;
16189;SDS011;41754;51.498;7.540;2023-07-31T02:45:45;7.43;;;3.90;;
16189;SDS011;41754;51.498;7.540;2023-07-31T02:48:18;12.57;;;4.18;;
16189;SDS011;41754;51.498;7.540;2023-07-31T02:50:48;11.02;;;3.95;;
16189;SDS011;41754;51.498;7.540;2023-07-31T02:53:16;8.40;;;4.10;;
16189;SDS011;41754;51.498;7.540;2023-07-31T02:55:43;9.32;;;3.65;;
16189;SDS011;41754;51.498;7.540;2023-07-31T02:58:11;7.20;;;3.97;;
16189;SDS011;41754;51.498;7.540;2023-07-31T03:00:41;11.85;;;4.32;;
16189;SDS011;41754;51.498;7.540;2023-07-31T03:03:09;9.65;;;3.97;;
16189;SDS011;41754;51.498;7.540;2023-07-31T03:05:37;7.75;;;3.55;;
16189;SDS011;41754;51.498;7.540;2023-07-31T03:08:07;8.00;;;4.55;;
16189;SDS011;41754;51.498;7.540;2023-07-31T03:10:35;7.50;;;3.70;;
16189;SDS011;41754;51.498;7.540;2023-07-31T03:13:03;8.40;;;4.03;;
16189;SDS011;41754;51.498;7.540;2023-07-31T03:15:31;7.50;;;3.92;;
16189;SDS011;41754;51.498;7.540;2023-07-31T03:17:59;9.50;;;4.45;;
16189;SDS011;41754;51.498;7.540;2023-07-31T03:20:27;10.40;;;5.13;;
16189;SDS011;41754;51.498;7.540;2023-07-31T03:22:55;9.98;;;4.30;;
16189;SDS011;41754;51.498;7.540;2023-07-31T03:25:24;12.80;;;5.30;;
16189;SDS011;41754;51.498;7.540;2023-07-31T03:27:52;12.40;;;4.70;;
16189;SDS011;41754;51.498;7.540;2023-07-31T03:30:20;11.25;;;4.28;;
16189;SDS011;41754;51.498;7.540;2023-07-31T03:32:48;9.55;;;4.30;;
16189;SDS011;41754;51.498;7.540;2023-07-31T03:35:16;12.27;;;4.75;;
16189;SDS011;41754;51.498;7.540;2023-07-31T03:37:44;6.15;;;3.80;;
16189;SDS011;41754;51.498;7.540;2023-07-31T03:40:12;10.48;;;4.50;;
16189;SDS011;41754;51.498;7.540;2023-07-31T03:42:41;9.18;;;4.20;;
16189;SDS011;41754;51.498;7.540;2023-07-31T03:45:09;10.40;;;4.53;;
16189;SDS011;41754;51.498;7.540;2023-07-31T03:47:37;13.23;;;4.43;;
16189;SDS011;41754;51.498;7.540;2023-07-31T03:50:05;8.38;;;4.38;;
16189;SDS011;41754;51.498;7.540;2023-07-31T03:52:34;10.23;;;4.20;;
16189;SDS011;41754;51.498;7.540;2023-07-31T03:55:02;8.50;;;4.80;;
16189;SDS011;41754;51.498;7.540;2023-07-31T03:57:30;12.60;;;4.97;;
16189;SDS011;41754;51.498;7.540;2023-07-31T04:00:00;7.40;;;4.00;;
16189;SDS011;41754;51.498;7.540;2023-07-31T04:02:37;8.52;;;4.22;;
16189;SDS011;41754;51.498;7.540;2023-07-31T04:05:05;11.52;;;4.88;;
16189;SDS011;41754;51.498;7.540;2023-07-31T04:07:33;5.53;;;3.70;;
16189;SDS011;41754;51.498;7.540;2023-07-31T04:10:01;8.02;;;3.90;;
16189;SDS011;41754;51.498;7.540;2023-07-31T04:12:29;8.73;;;4.35;;
16189;SDS011;41754;51.498;7.540;2023-07-31T04:14:57;8.60;;;4.10;;
16189;SDS011;41754;51.498;7.540;2023-07-31T04:17:26;10.13;;;4.28;;
16189;SDS011;41754;51.498;7.540;2023-07-31T04:19:54;8.88;;;4.18;;
16189;SDS011;41754;51.498;7.540;2023-07-31T04:22:22;6.63;;;3.85;;
16189;SDS011;41754;51.498;7.540;2023-07-31T04:24:50;11.00;;;4.20;;
16189;SDS011;41754;51.498;7.540;2023-07-31T04:27:18;7.70;;;4.20;;
16189;SDS011;41754;51.498;7.540;2023-07-31T04:29:46;9.55;;;3.55;;
16189;SDS011;41754;51.498;7.540;2023-07-31T04:32:14;8.00;;;3.72;;
16189;SDS011;41754;51.498;7.540;2023-07-31T04:34:44;10.23;;;3.97;;
16189;SDS011;41754;51.498;7.540;2023-07-31T04:37:12;8.35;;;3.90;;
16189;SDS011;41754;51.498;7.540;2023-07-31T04:39:40;9.13;;;3.80;;
16189;SDS011;41754;51.498;7.540;2023-07-31T04:42:07;7.28;;;3.67;;
16189;SDS011;41754;51.498;7.540;2023-07-31T04:44:35;8.65;;;4.30;;
16189;SDS011;41754;51.498;7.540;2023-07-31T04:47:03;6.25;;;3.90;;
16189;SDS011;41754;51.498;7.540;2023-07-31T04:49:31;7.03;;;3.97;;
16189;SDS011;41754;51.498;7.540;2023-07-31T04:52:00;9.60;;;4.35;;
16189;SDS011;41754;51.498;7.540;2023-07-31T04:54:28;7.57;;;4.05;;
16189;SDS011;41754;51.498;7.540;2023-07-31T04:56:56;9.25;;;4.18;;
16189;SDS011;41754;51.498;7.540;2023-07-31T04:59:24;7.55;;;4.18;;
16189;SDS011;41754;51.498;7.540;2023-07-31T05:01:51;7.47;;;4.75;;
16189;SDS011;41754;51.498;7.540;2023-07-31T05:04:19;7.22;;;3.10;;
16189;SDS011;41754;51.498;7.540;2023-07-31T05:06:47;9.18;;;4.63;;
16189;SDS011;41754;51.498;7.540;2023-07-31T05:09:16;8.52;;;3.90;;
16189;SDS011;41754;51.498;7.540;2023-07-31T05:11:45;11.60;;;4.00;;
16189;SDS011;41754;51.498;7.540;2023-07-31T05:14:13;8.27;;;3.60;;
16189;SDS011;41754;51.498;7.540;2023-07-31T05:16:42;9.88;;;4.25;;
16189;SDS011;41754;51.498;7.540;2023-07-31T05:19:10;8.85;;;4.68;;
16189;SDS011;41754;51.498;7.540;2023-07-31T05:21:38;8.23;;;4.45;;
16189;SDS011;41754;51.498;7.540;2023-07-31T05:24:06;9.05;;;4.22;;
16189;SDS011;41754;51.498;7.540;2023-07-31T05:26:35;8.35;;;4.30;;
16189;SDS011;41754;51.498;7.540;2023-07-31T05:29:04;7.40;;;4.50;;
16189;SDS011;41754;51.498;7.540;2023-07-31T05:31:32;8.20;;;4.15;;
16189;SDS011;41754;51.498;7.540;2023-07-31T05:34:00;8.25;;;4.22;;
16189;SDS011;41754;51.498;7.540;2023-07-31T05:36:29;9.82;;;4.28;;
16189;SDS011;41754;51.498;7.540;2023-07-31T05:38:57;8.05;;;4.30;;
16189;SDS011;41754;51.498;7.540;2023-07-31T05:41:25;7.72;;;4.28;;
16189;SDS011;41754;51.498;7.540;2023-07-31T05:43:54;8.82;;;4.20;;
16189;SDS011;41754;51.498;7.540;2023-07-31T05:46:22;10.90;;;4.80;;
16189;SDS011;41754;51.498;7.540;2023-07-31T05:48:49;8.65;;;4.57;;
16189;SDS011;41754;51.498;7.540;2023-07-31T05:51:17;7.57;;;4.15;;
16189;SDS011;41754;51.498;7.540;2023-07-31T05:53:45;7.60;;;4.53;;
16189;SDS011;41754;51.498;7.540;2023-07-31T05:56:13;8.98;;;4.30;;
16189;SDS011;41754;51.498;7.540;2023-07-31T05:58:41;8.43;;;3.88;;
16189;SDS011;41754;51.498;7.540;2023-07-31T06:01:10;8.73;;;4.25;;
16189;SDS011;41754;51.498;7.540;2023-07-31T06:03:38;7.68;;;3.95;;
16189;SDS011;41754;51.498;7.540;2023-07-31T06:06:06;11.70;;;4.80;;
16189;SDS011;41754;51.498;7.540;2023-07-31T06:08:34;9.13;;;4.78;;
16189;SDS011;41754;51.498;7.540;2023-07-31T06:11:02;6.63;;;4.72;;
16189;SDS011;41754;51.498;7.540;2023-07-31T06:13:30;7.45;;;4.85;;
16189;SDS011;41754;51.498;7.540;2023-07-31T06:15:58;9.75;;;5.13;;
16189;SDS011;41754;51.498;7.540;2023-07-31T06:18:28;8.90;;;4.57;;
16189;SDS011;41754;51.498;7.540;2023-07-31T06:20:55;7.57;;;5.57;;
16189;SDS011;41754;51.498;7.540;2023-07-31T06:23:23;8.48;;;4.88;;
16189;SDS011;41754;51.498;7.540;2023-07-31T06:25:51;9.20;;;5.20;;
16189;SDS011;41754;51.498;7.540;2023-07-31T06:28:19;8.35;;;4.72;;
16189;SDS011;41754;51.498;7.540;2023-07-31T06:30:47;8.45;;;5.07;;
16189;SDS011;41754;51.498;7.540;2023-07-31T06:33:15;8.25;;;5.53;;
16189;SDS011;41754;51.498;7.540;2023-07-31T06:35:44;6.03;;;4.40;;
16189;SDS011;41754;51.498;7.540;2023-07-31T06:38:12;5.68;;;4.28;;
16189;SDS011;41754;51.498;7.540;2023-07-31T06:40:40;6.07;;;4.70;;
16189;SDS011;41754;51.498;7.540;2023-07-31T06:43:08;9.75;;;4.70;;
16189;SDS011;41754;51.498;7.540;2023-07-31T06:45:36;8.30;;;5.00;;
16189;SDS011;41754;51.498;7.540;2023-07-31T06:48:04;7.68;;;4.88;;
16189;SDS011;41754;51.498;7.540;2023-07-31T06:50:32;8.88;;;4.78;;
16189;SDS011;41754;51.498;7.540;2023-07-31T06:53:02;9.27;;;4.85;;
16189;SDS011;41754;51.498;7.540;2023-07-31T06:55:30;7.40;;;4.47;;
16189;SDS011;41754;51.498;7.540;2023-07-31T06:57:58;10.32;;;5.30;;
16189;SDS011;41754;51.498;7.540;2023-07-31T07:00:25;8.38;;;4.45;;
16189;SDS011;41754;51.498;7.540;2023-07-31T07:02:55;8.50;;;5.18;;
16189;SDS011;41754;51.498;7.540;2023-07-31T07:05:23;8.77;;;5.15;;
16189;SDS011;41754;51.498;7.540;2023-07-31T07:07:50;9.93;;;5.07;;
16189;SDS011;41754;51.498;7.540;2023-07-31T07:10:20;9.52;;;4.78;;
16189;SDS011;41754;51.498;7.540;2023-07-31T07:12:48;6.72;;;5.30;;
16189;SDS011;41754;51.498;7.540;2023-07-31T07:15:16;7.43;;;4.85;;
16189;SDS011;41754;51.498;7.540;2023-07-31T07:17:44;7.07;;;5.10;;
16189;SDS011;41754;51.498;7.540;2023-07-31T07:20:12;5.72;;;3.88;;
16189;SDS011;41754;51.498;7.540;2023-07-31T07:22:39;8.40;;;4.47;;
16189;SDS011;41754;51.498;7.540;2023-07-31T07:25:09;6.53;;;4.18;;
16189;SDS011;41754;51.498;7.540;2023-07-31T07:27:38;5.68;;;3.72;;
16189;SDS011;41754;51.498;7.540;2023-07-31T07:30:06;8.05;;;4.18;;
16189;SDS011;41754;51.498;7.540;2023-07-31T07:32:35;7.68;;;4.40;;
16189;SDS011;41754;51.498;7.540;2023-07-31T07:35:03;6.78;;;4.25;;
16189;SDS011;41754;51.498;7.540;2023-07-31T07:37:31;6.03;;;3.72;;
16189;SDS011;41754;51.498;7.540;2023-07-31T07:40:00;7.53;;;4.22;;
16189;SDS011;41754;51.498;7.540;2023-07-31T07:42:28;4.93;;;3.85;;
16189;SDS011;41754;51.498;7.540;2023-07-31T07:44:57;7.20;;;4.60;;
16189;SDS011;41754;51.498;7.540;2023-07-31T07:47:25;6.97;;;4.13;;
16189;SDS011;41754;51.498;7.540;2023-07-31T07:49:54;4.82;;;3.53;;
16189;SDS011;41754;51.498;7.540;2023-07-31T07:52:22;8.25;;;4.03;;
16189;SDS011;41754;51.498;7.540;2023-07-31T07:54:50;5.72;;;4.20;;
16189;SDS011;41754;51.498;7.540;2023-07-31T07:57:18;6.38;;;3.88;;
16189;SDS011;41754;51.498;7.540;2023-07-31T07:59:46;5.57;;;4.05;;
16189;SDS011;41754;51.498;7.540;2023-07-31T08:02:15;5.20;;;3.78;;
16189;SDS011;41754;51.498;7.540;2023-07-31T08:04:43;4.93;;;3.92;;
16189;SDS011;41754;51.498;7.540;2023-07-31T08:07:11;6.70;;;4.00;;
16189;SDS011;41754;51.498;7.540;2023-07-31T08:09:39;5.50;;;3.60;;
16189;SDS011;41754;51.498;7.540;2023-07-31T08:12:07;7.18;;;4.05;;
16189;SDS011;41754;51.498;7.540;2023-07-31T08:14:35;4.93;;;4.20;;
16189;SDS011;41754;51.498;7.540;2023-07-31T08:17:03;9.88;;;4.35;;
16189;SDS011;41754;51.498;7.540;2023-07-31T08:19:33;6.00;;;3.88;;
16189;SDS011;41754;51.498;7.540;2023-07-31T08:22:01;7.30;;;4.28;;
16189;SDS011;41754;51.498;7.540;2023-07-31T08:24:28;6.07;;;3.75;;
16189;SDS011;41754;51.498;7.540;2023-07-31T08:26:56;5.95;;;3.67;;
16189;SDS011;41754;51.498;7.540;2023-07-31T08:29:24;4.82;;;3.42;;
16189;SDS011;41754;51.498;7.540;2023-07-31T08:31:52;8.38;;;3.90;;
16189;SDS011;41754;51.498;7.540;2023-07-31T08:34:20;7.03;;;4.10;;
16189;SDS011;41754;51.498;7.540;2023-07-31T08:36:50;6.97;;;4.15;;
16189;SDS011;41754;51.498;7.540;2023-07-31T08:39:17;5.35;;;3.30;;
16189;SDS011;41754;51.498;7.540;2023-07-31T08:41:45;6.60;;;3.92;;
16189;SDS011;41754;51.498;7.540;2023-07-31T08:44:14;7.05;;;4.72;;
16189;SDS011;41754;51.498;7.540;2023-07-31T08:46:44;6.05;;;3.65;;
16189;SDS011;41754;51.498;7.540;2023-07-31T08:49:13;5.38;;;3.42;;
16189;SDS011;41754;51.498;7.540;2023-07-31T08:51:42;5.63;;;3.72;;
16189;SDS011;41754;51.498;7.540;2023-07-31T08:54:12;5.93;;;3.80;;
16189;SDS011;41754;51.498;7.540;2023-07-31T08:56:39;6.63;;;4.43;;
16189;SDS011;41754;51.498;7.540;2023-07-31T08:59:08;6.95;;;3.72;;
16189;SDS011;41754;51.498;7.540;2023-07-31T09:01:38;5.43;;;3.17;;
16189;SDS011;41754;51.498;7.540;2023-07-31T09:04:10;3.90;;;3.30;;
16189;SDS011;41754;51.498;7.540;2023-07-31T09:06:41;3.78;;;3.10;;
16189;SDS011;41754;51.498;7.540;2023-07-31T09:09:12;2.78;;;2.50;;
16189;SDS011;41754;51.498;7.540;2023-07-31T09:11:40;3.90;;;2.63;;
16189;SDS011;41754;51.498;7.540;2023-07-31T09:14:08;4.07;;;2.95;;
16189;SDS011;41754;51.498;7.540;2023-07-31T09:16:51;3.80;;;2.72;;
16189;SDS011;41754;51.498;7.540;2023-07-31T09:19:27;4.03;;;2.67;;
16189;SDS011;41754;51.498;7.540;2023-07-31T09:25:15;3.47;;;2.50;;
16189;SDS011;41754;51.498;7.540;2023-07-31T09:27:47;3.53;;;2.35;;
16189;SDS011;41754;51.498;7.540;2023-07-31T09:30:16;4.40;;;2.17;;
16189;SDS011;41754;51.498;7.540;2023-07-31T09:32:45;3.72;;;2.30;;
16189;SDS011;41754;51.498;7.540;2023-07-31T09:35:21;3.65;;;2.22;;
16189;SDS011;41754;51.498;7.540;2023-07-31T09:37:50;2.60;;;2.40;;
16189;SDS011;41754;51.498;7.540;2023-07-31T09:40:27;3.85;;;2.80;;
16189;SDS011;41754;51.498;7.540;2023-07-31T09:42:56;4.40;;;2.20;;
16189;SDS011;41754;51.498;7.540;2023-07-31T09:45:25;2.97;;;2.40;;
16189;SDS011;41754;51.498;7.540;2023-07-31T09:48:06;4.22;;;3.20;;
16189;SDS011;41754;51.498;7.540;2023-07-31T09:50:36;4.68;;;3.40;;
16189;SDS011;41754;51.498;7.540;2023-07-31T09:53:05;4.88;;;3.30;;
16189;SDS011;41754;51.498;7.540;2023-07-31T09:55:35;3.47;;;3.05;;
16189;SDS011;41754;51.498;7.540;2023-07-31T09:58:04;3.72;;;3.08;;
16189;SDS011;41754;51.498;7.540;2023-07-31T10:00:33;3.67;;;3.30;;
16189;SDS011;41754;51.498;7.540;2023-07-31T10:03:02;3.10;;;2.80;;
16189;SDS011;41754;51.498;7.540;2023-07-31T10:05:34;3.20;;;2.85;;
16189;SDS011;41754;51.498;7.540;2023-07-31T10:08:03;3.85;;;2.70;;
16189;SDS011;41754;51.498;7.540;2023-07-31T10:10:34;5.28;;;3.13;;
16189;SDS011;41754;51.498;7.540;2023-07-31T10:13:04;5.03;;;2.65;;
16189;SDS011;41754;51.498;7.540;2023-07-31T10:15:32;3.83;;;2.63;;
16189;SDS011;41754;51.498;7.540;2023-07-31T10:18:01;3.47;;;2.40;;
16189;SDS011;41754;51.498;7.540;2023-07-31T10:20:30;4.38;;;2.50;;
16189;SDS011;41754;51.498;7.540;2023-07-31T10:22:58;2.63;;;2.42;;
16189;SDS011;41754;51.498;7.540;2023-07-31T10:25:26;3.55;;;2.13;;
16189;SDS011;41754;51.498;7.540;2023-07-31T10:27:56;2.67;;;2.00;;
16189;SDS011;41754;51.498;7.540;2023-07-31T10:30:26;3.00;;;2.25;;
16189;SDS011;41754;51.498;7.540;2023-07-31T10:32:57;2.40;;;2.03;;
16189;SDS011;41754;51.498;7.540;2023-07-31T10:35:25;2.20;;;1.65;;
16189;SDS011;41754;51.498;7.540;2023-07-31T10:37:55;1.65;;;1.50;;
16189;SDS011;41754;51.498;7.540;2023-07-31T10:40:23;1.40;;;1.30;;
16189;SDS011;41754;51.498;7.540;2023-07-31T10:42:53;2.13;;;1.73;;
16189;SDS011;41754;51.498;7.540;2023-07-31T10:45:26;2.92;;;1.60;;
16189;SDS011;41754;51.498;7.540;2023-07-31T10:47:59;2.85;;;1.55;;
16189;SDS011;41754;51.498;7.540;2023-07-31T10:50:28;1.42;;;1.33;;
16189;SDS011;41754;51.498;7.540;2023-07-31T10:52:59;2.05;;;1.70;;
16189;SDS011;41754;51.498;7.540;2023-07-31T10:55:29;1.58;;;1.48;;
16189;SDS011;41754;51.498;7.540;2023-07-31T10:58:05;5.13;;;1.67;;
16189;SDS011;41754;51.498;7.540;2023-07-31T11:00:37;1.83;;;1.50;;
16189;SDS011;41754;51.498;7.540;2023-07-31T11:03:06;1.80;;;1.40;;
16189;SDS011;41754;51.498;7.540;2023-07-31T11:05:40;1.48;;;1.20;;
16189;SDS011;41754;51.498;7.540;2023-07-31T11:08:16;1.40;;;1.30;;
16189;SDS011;41754;51.498;7.540;2023-07-31T11:10:47;2.55;;;1.60;;
16189;SDS011;41754;51.498;7.540;2023-07-31T11:13:16;2.95;;;1.60;;
16189;SDS011;41754;51.498;7.540;2023-07-31T11:15:45;2.33;;;1.58;;
16189;SDS011;41754;51.498;7.540;2023-07-31T11:18:13;1.70;;;1.45;;
16189;SDS011;41754;51.498;7.540;2023-07-31T11:20:43;1.58;;;1.42;;
16189;SDS011;41754;51.498;7.540;2023-07-31T11:23:11;2.22;;;1.40;;
16189;SDS011;41754;51.498;7.540;2023-07-31T11:25:39;1.95;;;1.48;;
16189;SDS011;41754;51.498;7.540;2023-07-31T11:28:08;2.40;;;2.20;;
16189;SDS011;41754;51.498;7.540;2023-07-31T11:30:37;3.00;;;1.70;;
16189;SDS011;41754;51.498;7.540;2023-07-31T11:33:08;2.47;;;1.90;;
16189;SDS011;41754;51.498;7.540;2023-07-31T11:35:40;2.05;;;1.90;;
16189;SDS011;41754;51.498;7.540;2023-07-31T11:38:11;2.40;;;2.20;;
16189;SDS011;41754;51.498;7.540;2023-07-31T11:40:42;2.40;;;2.20;;
16189;SDS011;41754;51.498;7.540;2023-07-31T11:43:10;2.17;;;1.98;;
16189;SDS011;41754;51.498;7.540;2023-07-31T11:45:44;3.50;;;2.13;;
16189;SDS011;41754;51.498;7.540;2023-07-31T11:48:22;3.00;;;2.70;;
16189;SDS011;41754;51.498;7.540;2023-07-31T11:50:53;3.78;;;2.45;;
16189;SDS011;41754;51.498;7.540;2023-07-31T11:53:26;4.35;;;2.88;;
16189;SDS011;41754;51.498;7.540;2023-07-31T11:55:56;3.33;;;2.60;;
16189;SDS011;41754;51.498;7.540;2023-07-31T11:58:25;3.47;;;2.83;;
16189;SDS011;41754;51.498;7.540;2023-07-31T12:00:54;3.25;;;2.78;;
16189;SDS011;41754;51.498;7.540;2023-07-31T12:03:25;5.43;;;3.20;;
16189;SDS011;41754;51.498;7.540;2023-07-31T12:05:54;3.13;;;2.80;;
16189;SDS011;41754;51.498;7.540;2023-07-31T12:08:22;3.97;;;3.05;;
16189;SDS011;41754;51.498;7.540;2023-07-31T12:10:51;7.40;;;3.58;;
16189;SDS011;41754;51.498;7.540;2023-07-31T12:13:20;4.22;;;3.28;;
16189;SDS011;41754;51.498;7.540;2023-07-31T12:15:53;3.25;;;2.70;;
16189;SDS011;41754;51.498;7.540;2023-07-31T12:18:24;3.60;;;2.88;;
16189;SDS011;41754;51.498;7.540;2023-07-31T12:20:55;3.40;;;3.10;;
16189;SDS011;41754;51.498;7.540;2023-07-31T12:23:24;4.47;;;2.95;;
16189;SDS011;41754;51.498;7.540;2023-07-31T12:26:01;4.03;;;3.08;;
16189;SDS011;41754;51.498;7.540;2023-07-31T12:28:32;4.22;;;3.00;;
16189;SDS011;41754;51.498;7.540;2023-07-31T12:31:03;5.25;;;2.80;;
16189;SDS011;41754;51.498;7.540;2023-07-31T12:33:33;4.43;;;2.50;;
16189;SDS011;41754;51.498;7.540;2023-07-31T12:36:04;4.25;;;2.60;;
16189;SDS011;41754;51.498;7.540;2023-07-31T12:38:34;3.10;;;2.58;;
16189;SDS011;41754;51.498;7.540;2023-07-31T12:41:02;3.03;;;2.47;;
16189;SDS011;41754;51.498;7.540;2023-07-31T12:43:30;2.30;;;2.10;;
16189;SDS011;41754;51.498;7.540;2023-07-31T12:45:58;2.75;;;2.15;;
16189;SDS011;41754;51.498;7.540;2023-07-31T12:48:26;3.28;;;2.20;;
16189;SDS011;41754;51.498;7.540;2023-07-31T12:50:56;2.63;;;2.00;;
16189;SDS011;41754;51.498;7.540;2023-07-31T12:53:23;2.75;;;2.13;;
16189;SDS011;41754;51.498;7.540;2023-07-31T12:55:51;2.40;;;2.20;;
16189;SDS011;41754;51.498;7.540;2023-07-31T12:58:19;2.45;;;2.00;;
16189;SDS011;41754;51.498;7.540;2023-07-31T13:00:47;2.72;;;2.13;;
16189;SDS011;41754;51.498;7.540;2023-07-31T13:03:15;2.42;;;1.80;;
16189;SDS011;41754;51.498;7.540;2023-07-31T13:05:43;2.17;;;1.77;;
16189;SDS011;41754;51.498;7.540;2023-07-31T13:08:12;2.30;;;1.90;;
16189;SDS011;41754;51.498;7.540;2023-07-31T13:10:42;2.17;;;1.85;;
16189;SDS011;41754;51.498;7.540;2023-07-31T13:13:10;3.10;;;2.38;;
16189;SDS011;41754;51.498;7.540;2023-07-31T13:15:38;2.58;;;2.00;;
16189;SDS011;41754;51.498;7.540;2023-07-31T13:18:06;2.97;;;2.00;;
16189;SDS011;41754;51.498;7.540;2023-07-31T13:20:33;2.30;;;2.10;;
16189;SDS011;41754;51.498;7.540;2023-07-31T13:23:01;2.97;;;1.85;;
16189;SDS011;41754;51.498;7.540;2023-07-31T13:25:31;1.98;;;1.80;;
16189;SDS011;41754;51.498;7.540;2023-07-31T13:27:59;3.28;;;1.70;;
16189;SDS011;41754;51.498;7.540;2023-07-31T13:30:29;2.10;;;1.90;;
16189;SDS011;41754;51.498;7.540;2023-07-31T13:32:57;2.83;;;1.55;;
16189;SDS011;41754;51.498;7.540;2023-07-31T13:35:24;3.97;;;1.70;;
16189;SDS011;41754;51.498;7.540;2023-07-31T13:37:52;2.45;;;1.55;;
16189;SDS011;41754;51.498;7.540;2023-07-31T13:40:21;4.50;;;1.90;;
16189;SDS011;41754;51.498;7.540;2023-07-31T13:42:50;2.97;;;1.90;;
16189;SDS011;41754;51.498;7.540;2023-07-31T13:45:19;1.83;;;1.70;;
16189;SDS011;41754;51.498;7.540;2023-07-31T13:47:46;2.45;;;1.80;;
16189;SDS011;41754;51.498;7.540;2023-07-31T13:50:14;2.75;;;2.35;;
16189;SDS011;41754;51.498;7.540;2023-07-31T13:52:43;2.10;;;1.90;;
16189;SDS011;41754;51.498;7.540;2023-07-31T13:55:11;2.60;;;1.80;;
16189;SDS011;41754;51.498;7.540;2023-07-31T13:57:38;2.50;;;1.77;;
16189;SDS011;41754;51.498;7.540;2023-07-31T14:00:08;1.88;;;1.77;;
16189;SDS011;41754;51.498;7.540;2023-07-31T14:02:37;2.65;;;2.10;;
16189;SDS011;41754;51.498;7.540;2023-07-31T14:05:05;2.17;;;1.98;;
16189;SDS011;41754;51.498;7.540;2023-07-31T14:07:34;3.67;;;1.75;;
16189;SDS011;41754;51.498;7.540;2023-07-31T14:10:02;3.13;;;1.80;;
16189;SDS011;41754;51.498;7.540;2023-07-31T14:12:30;3.28;;;1.90;;
16189;SDS011;41754;51.498;7.540;2023-07-31T14:15:10;3.78;;;2.00;;
16189;SDS011;41754;51.498;7.540;2023-07-31T14:17:38;2.95;;;1.90;;
16189;SDS011;41754;51.498;7.540;2023-07-31T14:20:07;2.85;;;2.05;;
16189;SDS011;41754;51.498;7.540;2023-07-31T14:22:37;2.75;;;1.70;;
16189;SDS011;41754;51.498;7.540;2023-07-31T14:25:05;2.72;;;1.90;;
16189;SDS011;41754;51.498;7.540;2023-07-31T14:27:33;2.97;;;2.15;;
16189;SDS011;41754;51.498;7.540;2023-07-31T14:30:01;4.05;;;2.20;;
16189;SDS011;41754;51.498;7.540;2023-07-31T14:32:30;2.00;;;1.80;;
16189;SDS011;41754;51.498;7.540;2023-07-31T14:34:58;3.60;;;2.47;;
16189;SDS011;41754;51.498;7.540;2023-07-31T14:37:26;2.75;;;2.45;;
16189;SDS011;41754;51.498;7.540;2023-07-31T14:39:54;3.58;;;2.47;;
16189;SDS011;41754;51.498;7.540;2023-07-31T14:42:22;2.90;;;2.17;;
16189;SDS011;41754;51.498;7.540;2023-07-31T14:44:50;2.38;;;2.00;;
16189;SDS011;41754;51.498;7.540;2023-07-31T14:47:18;5.13;;;2.65;;
16189;SDS011;41754;51.498;7.540;2023-07-31T14:49:47;2.78;;;2.30;;
16189;SDS011;41754;51.498;7.540;2023-07-31T14:52:15;3.28;;;2.72;;
16189;SDS011;41754;51.498;7.540;2023-07-31T14:54:43;3.13;;;2.15;;
16189;SDS011;41754;51.498;7.540;2023-07-31T14:57:11;3.58;;;2.47;;
16189;SDS011;41754;51.498;7.540;2023-07-31T14:59:39;3.47;;;2.63;;
16189;SDS011;41754;51.498;7.540;2023-07-31T15:02:07;3.17;;;2.45;;